Time;durP1;ratioP1;P1;durP2;ratioP2;P2;SDS_P1;SDS_P2;PMS_P1;PMS_P2;Temp;Humidity;BMP_temperature;BMP_pressure;BME280_temperature;BME280_humidity;BME280_pressure;Samples;Min_cycle;Max_cycle;Signal;HPM_P1;HPM_P2
2024/01/17 00:00:28;;;;;;;5.22;2.70;;;0.90;99.90;;;;;;4991387;28;20114;-19
2024/01/17 00:02:53;;;;;;;5.15;3.13;;;0.90;99.90;;;;;;4988118;28;20085;-21
2024/01/17 00:05:19;;;;;;;4.67;2.43;;;0.90;99.90;;;;;;4988996;28;20039;-19
2024/01/17 00:07:45;;;;;;;4.03;2.38;;;0.90;99.90;;;;;;4989908;28;20038;-19
2024/01/17 00:10:10;;;;;;;6.03;2.90;;;0.90;99.90;;;;;;4960042;28;20347;-20
2024/01/17 00:12:36;;;;;;;5.15;2.58;;;0.90;99.90;;;;;;4987909;28;20023;-21
2024/01/17 00:15:02;;;;;;;5.40;2.83;;;0.90;99.90;;;;;;4986995;28;20326;-19
2024/01/17 00:17:28;;;;;;;5.28;2.78;;;0.90;99.90;;;;;;4988141;28;20057;-20
2024/01/17 00:19:54;;;;;;;6.93;2.57;;;1.00;99.90;;;;;;4989264;28;20038;-20
2024/01/17 00:22:19;;;;;;;4.00;2.45;;;1.00;99.90;;;;;;4986217;28;20106;-20
2024/01/17 00:24:45;;;;;;;6.10;2.83;;;1.00;99.90;;;;;;4985300;28;20062;-19
2024/01/17 00:27:13;;;;;;;4.20;2.30;;;1.00;99.90;;;;;;4989898;28;20061;-21
2024/01/17 00:29:39;;;;;;;5.22;2.85;;;1.00;99.90;;;;;;4987050;28;20089;-21
2024/01/17 00:32:04;;;;;;;4.57;2.80;;;1.00;99.90;;;;;;4988111;28;20307;-20
2024/01/17 00:34:30;;;;;;;4.73;2.53;;;1.00;99.90;;;;;;4988620;28;20030;-20
2024/01/17 00:36:56;;;;;;;5.18;2.65;;;1.00;99.90;;;;;;4986595;28;20034;-20
2024/01/17 00:39:22;;;;;;;3.37;2.10;;;1.00;99.90;;;;;;4989562;28;20033;-21
2024/01/17 00:41:49;;;;;;;3.87;2.27;;;1.00;99.90;;;;;;4969970;28;20533;-19
2024/01/17 00:44:18;;;;;;;3.78;2.40;;;1.00;99.90;;;;;;4989695;28;20045;-21
2024/01/17 00:46:44;;;;;;;4.13;2.40;;;1.00;99.90;;;;;;4974226;28;20288;-19
2024/01/17 00:49:11;;;;;;;5.18;2.80;;;1.00;99.90;;;;;;4987598;28;20353;-20
2024/01/17 00:51:36;;;;;;;5.30;2.78;;;1.00;99.90;;;;;;4987169;28;20100;-21
2024/01/17 00:54:03;;;;;;;6.80;2.80;;;1.00;99.90;;;;;;4984958;28;20322;-19
2024/01/17 00:56:32;;;;;;;4.70;2.65;;;1.00;99.90;;;;;;4992017;28;20046;-19
2024/01/17 00:58:58;;;;;;;4.90;2.85;;;1.00;99.90;;;;;;4987991;28;20022;-20
2024/01/17 01:01:24;;;;;;;5.40;2.95;;;1.00;99.90;;;;;;4976637;28;20080;-19
2024/01/17 01:03:49;;;;;;;5.60;2.77;;;1.00;99.90;;;;;;4988616;28;20382;-24
2024/01/17 01:06:15;;;;;;;5.20;2.90;;;1.00;99.90;;;;;;4992133;28;20500;-20
2024/01/17 01:08:41;;;;;;;5.17;2.67;;;1.00;99.90;;;;;;4991385;28;20048;-20
2024/01/17 01:11:07;;;;;;;4.88;2.70;;;1.00;99.90;;;;;;4985819;28;20222;-19
2024/01/17 01:13:33;;;;;;;4.15;2.70;;;1.00;99.90;;;;;;4990878;28;20033;-19
2024/01/17 01:15:58;;;;;;;4.90;2.63;;;1.00;99.90;;;;;;4992895;28;20054;-21
2024/01/17 01:18:24;;;;;;;5.53;2.70;;;1.00;99.90;;;;;;4991426;28;20034;-20
2024/01/17 01:20:50;;;;;;;3.93;2.37;;;1.00;99.90;;;;;;4990481;28;20053;-19
2024/01/17 01:23:16;;;;;;;4.55;2.30;;;1.00;99.90;;;;;;4989118;28;20243;-20
2024/01/17 01:25:41;;;;;;;4.83;2.50;;;1.00;99.90;;;;;;4980107;28;20104;-19
2024/01/17 01:28:07;;;;;;;5.13;2.70;;;1.00;99.90;;;;;;4978010;28;20073;-20
2024/01/17 01:30:33;;;;;;;4.30;2.73;;;1.00;99.90;;;;;;4984062;28;20042;-19
2024/01/17 01:32:58;;;;;;;4.50;2.58;;;1.00;99.90;;;;;;4990068;28;20031;-20
2024/01/17 01:35:24;;;;;;;4.73;2.47;;;1.00;99.90;;;;;;4993286;28;20330;-20
2024/01/17 01:37:50;;;;;;;6.00;2.60;;;1.00;99.90;;;;;;4975204;28;20045;-20
2024/01/17 01:40:16;;;;;;;4.33;2.33;;;1.00;99.90;;;;;;4993006;28;20296;-20
2024/01/17 01:42:44;;;;;;;4.90;2.45;;;1.00;99.90;;;;;;4988665;28;20030;-20
2024/01/17 01:45:10;;;;;;;4.88;2.40;;;1.00;99.90;;;;;;4978087;28;20346;-20
2024/01/17 01:47:36;;;;;;;4.18;2.22;;;1.00;99.90;;;;;;4974099;28;20042;-20
2024/01/17 01:50:05;;;;;;;4.50;2.27;;;1.00;99.90;;;;;;4991903;28;20076;-21
2024/01/17 01:52:34;;;;;;;4.40;2.35;;;1.00;99.90;;;;;;4992964;28;20033;-19
2024/01/17 01:55:02;;;;;;;3.33;2.20;;;1.00;99.90;;;;;;4993560;28;20038;-20
2024/01/17 01:57:29;;;;;;;4.55;2.65;;;1.00;99.90;;;;;;4988649;28;20230;-20
2024/01/17 01:59:56;;;;;;;3.30;1.97;;;1.00;99.90;;;;;;4985916;28;20038;-20
2024/01/17 02:02:23;;;;;;;5.25;2.45;;;1.00;99.90;;;;;;4984519;28;20045;-21
2024/01/17 02:04:52;;;;;;;4.15;2.25;;;1.00;99.90;;;;;;4990125;28;20048;-19
2024/01/17 02:07:21;;;;;;;5.00;2.40;;;1.00;99.90;;;;;;4940008;28;20266;-20
2024/01/17 02:09:48;;;;;;;4.13;2.42;;;1.00;99.90;;;;;;4988026;28;20284;-21
2024/01/17 02:12:15;;;;;;;4.37;2.20;;;1.00;99.90;;;;;;4990942;28;20352;-19
2024/01/17 02:14:44;;;;;;;3.45;2.00;;;1.00;99.90;;;;;;4994533;28;20057;-22
2024/01/17 02:17:10;;;;;;;4.82;2.50;;;1.00;99.90;;;;;;4993355;28;20088;-23
2024/01/17 02:19:37;;;;;;;6.90;2.55;;;1.00;99.90;;;;;;4990182;28;20061;-22
2024/01/17 02:22:03;;;;;;;5.43;2.67;;;1.00;99.90;;;;;;4988832;28;20065;-23
2024/01/17 02:24:31;;;;;;;3.97;2.03;;;1.00;99.90;;;;;;4991758;28;20396;-22
2024/01/17 02:26:59;;;;;;;4.50;2.25;;;1.00;99.90;;;;;;4972828;28;20038;-22
2024/01/17 02:29:26;;;;;;;3.47;1.95;;;1.00;99.90;;;;;;4992594;28;20285;-24
2024/01/17 02:31:52;;;;;;;4.88;2.55;;;1.00;99.90;;;;;;4989654;28;20025;-21
2024/01/17 02:34:18;;;;;;;3.65;2.10;;;1.00;99.90;;;;;;4973495;28;20035;-19
2024/01/17 02:36:44;;;;;;;4.00;2.30;;;1.00;99.90;;;;;;4991797;28;20041;-22
2024/01/17 02:39:11;;;;;;;3.83;1.95;;;1.00;99.90;;;;;;4993685;28;20061;-19
2024/01/17 02:41:36;;;;;;;4.80;2.22;;;1.00;99.90;;;;;;4987197;28;20256;-20
2024/01/17 02:44:02;;;;;;;3.43;2.00;;;1.00;99.90;;;;;;4969907;28;20053;-20
2024/01/17 02:46:28;;;;;;;4.75;2.50;;;1.10;99.90;;;;;;4990865;28;20088;-20
2024/01/17 02:48:54;;;;;;;4.70;2.15;;;1.10;99.90;;;;;;4991928;28;20346;-20
2024/01/17 02:51:20;;;;;;;4.63;2.58;;;1.10;99.90;;;;;;4988422;28;20400;-20
2024/01/17 02:53:46;;;;;;;3.47;1.83;;;1.10;99.90;;;;;;4989134;28;20061;-21
2024/01/17 02:56:14;;;;;;;3.58;2.10;;;1.10;99.90;;;;;;4988577;28;20034;-20
2024/01/17 02:58:40;;;;;;;4.10;2.00;;;1.10;99.90;;;;;;4994550;28;20034;-20
2024/01/17 03:01:06;;;;;;;4.05;2.30;;;1.10;99.90;;;;;;4989004;28;20042;-21
2024/01/17 03:03:32;;;;;;;3.80;2.08;;;0.10;99.90;;;;;;4975444;28;20041;-20
2024/01/17 03:05:58;;;;;;;4.03;2.28;;;1.10;99.90;;;;;;4979592;28;20035;-20
2024/01/17 03:08:23;;;;;;;4.77;2.70;;;1.10;99.90;;;;;;4990315;28;20031;-21
2024/01/17 03:10:49;;;;;;;5.53;2.43;;;1.10;99.90;;;;;;4988015;28;20061;-20
2024/01/17 03:13:15;;;;;;;4.23;2.40;;;1.10;99.90;;;;;;4986729;28;20622;-20
2024/01/17 03:15:40;;;;;;;4.10;2.80;;;1.10;99.90;;;;;;4982363;28;20365;-20
2024/01/17 03:18:13;;;;;;;4.75;2.72;;;1.10;99.90;;;;;;4993727;28;20030;-20
2024/01/17 03:20:42;;;;;;;4.07;2.47;;;1.10;99.90;;;;;;4977001;28;20232;-19
2024/01/17 03:23:08;;;;;;;4.78;2.47;;;1.10;99.90;;;;;;4991103;28;20154;-21
2024/01/17 03:25:33;;;;;;;4.13;2.17;;;1.10;99.90;;;;;;4974484;28;20071;-22
2024/01/17 03:27:59;;;;;;;4.68;2.40;;;1.10;99.90;;;;;;4989739;28;20334;-23
2024/01/17 03:30:25;;;;;;;4.93;2.60;;;1.10;99.90;;;;;;4989890;28;20364;-22
2024/01/17 03:32:51;;;;;;;4.95;2.63;;;1.10;99.90;;;;;;4988320;28;20034;-22
2024/01/17 03:35:16;;;;;;;6.03;2.50;;;1.10;99.90;;;;;;4985764;28;20038;-22
2024/01/17 03:37:42;;;;;;;3.75;2.05;;;1.10;99.90;;;;;;4991022;28;20296;-21
2024/01/17 03:40:08;;;;;;;4.00;2.33;;;1.10;99.90;;;;;;4976376;28;20342;-23
2024/01/17 03:42:34;;;;;;;4.37;2.57;;;1.10;99.90;;;;;;4971988;28;20289;-25
2024/01/17 03:45:00;;;;;;;4.38;2.40;;;1.10;99.90;;;;;;4989217;28;20346;-22
2024/01/17 03:47:26;;;;;;;4.23;2.53;;;1.10;99.90;;;;;;4989475;28;20037;-22
2024/01/17 03:49:51;;;;;;;4.45;2.22;;;1.10;99.90;;;;;;4978691;28;20052;-23
2024/01/17 03:52:19;;;;;;;3.37;2.07;;;1.10;99.90;;;;;;4990151;28;20039;-21
2024/01/17 03:54:44;;;;;;;4.20;2.45;;;1.10;99.90;;;;;;4987734;28;20039;-21
2024/01/17 03:57:10;;;;;;;4.72;2.05;;;1.00;99.90;;;;;;4987630;28;20207;-20
2024/01/17 03:59:36;;;;;;;4.20;2.40;;;1.00;99.90;;;;;;4989395;28;20041;-20
2024/01/17 04:02:02;;;;;;;4.68;2.25;;;1.00;99.90;;;;;;4991891;28;20315;-20
2024/01/17 04:04:27;;;;;;;5.47;2.30;;;1.00;99.90;;;;;;4969846;28;20500;-20
2024/01/17 04:06:54;;;;;;;4.35;2.55;;;1.00;99.90;;;;;;4986374;28;20070;-22
2024/01/17 04:09:20;;;;;;;3.70;2.20;;;0.90;99.90;;;;;;4961685;28;20050;-20
2024/01/17 04:11:45;;;;;;;4.53;2.70;;;0.90;99.90;;;;;;4986542;28;23397;-20
2024/01/17 04:14:12;;;;;;;4.05;2.53;;;0.90;99.90;;;;;;4988429;28;20342;-20
2024/01/17 04:16:39;;;;;;;3.95;2.35;;;0.80;99.90;;;;;;4960162;28;20038;-20
2024/01/17 04:19:06;;;;;;;5.13;2.30;;;0.80;99.90;;;;;;4988296;28;20102;-19
2024/01/17 04:21:31;;;;;;;5.88;2.08;;;0.80;99.90;;;;;;4988698;28;20047;-19
2024/01/17 04:23:57;;;;;;;4.35;2.15;;;0.80;99.90;;;;;;4988286;28;20155;-20
2024/01/17 04:26:25;;;;;;;3.67;1.87;;;0.70;99.90;;;;;;4968399;28;20194;-20
2024/01/17 04:28:51;;;;;;;6.55;2.70;;;0.80;99.90;;;;;;4991206;28;20237;-19
2024/01/17 04:31:30;;;;;;;3.90;2.30;;;0.70;99.90;;;;;;4978133;28;20285;-19
2024/01/17 04:33:58;;;;;;;3.38;2.20;;;0.70;99.90;;;;;;4995623;28;20102;-19
2024/01/17 04:36:27;;;;;;;3.47;2.17;;;0.70;99.90;;;;;;4975756;28;20022;-22
2024/01/17 04:38:54;;;;;;;4.57;2.33;;;0.60;99.90;;;;;;4991924;28;20034;-21
2024/01/17 04:41:20;;;;;;;4.38;2.45;;;0.70;99.90;;;;;;4993300;28;20353;-23
2024/01/17 04:43:46;;;;;;;6.68;2.50;;;0.70;99.90;;;;;;4992323;28;20483;-22
2024/01/17 04:46:13;;;;;;;3.70;2.30;;;0.70;99.90;;;;;;4989898;28;20080;-23
2024/01/17 04:48:40;;;;;;;4.13;2.30;;;0.70;99.90;;;;;;4993201;28;20026;-21
2024/01/17 04:51:06;;;;;;;6.03;2.92;;;0.70;99.90;;;;;;4974418;28;20169;-22
2024/01/17 04:53:33;;;;;;;4.50;2.50;;;0.70;99.90;;;;;;4991756;28;20189;-24
2024/01/17 04:56:05;;;;;;;5.03;2.50;;;0.70;99.90;;;;;;4972304;28;20092;-21
2024/01/17 04:58:32;;;;;;;4.50;2.50;;;0.70;99.90;;;;;;4991433;28;20317;-21
2024/01/17 05:00:58;;;;;;;5.00;2.73;;;0.70;99.90;;;;;;4989470;28;20323;-22
2024/01/17 05:03:23;;;;;;;3.80;2.20;;;0.70;99.90;;;;;;4992232;28;20061;-25
2024/01/17 05:05:49;;;;;;;4.60;2.47;;;0.70;99.90;;;;;;4989866;28;20373;-21
2024/01/17 05:08:15;;;;;;;4.20;2.42;;;-2.20;99.90;;;;;;4995183;28;20053;-20
2024/01/17 05:10:43;;;;;;;4.83;2.47;;;0.70;99.90;;;;;;4987352;28;20044;-21
2024/01/17 05:13:09;;;;;;;5.10;2.70;;;0.70;99.90;;;;;;4973561;28;20038;-23
2024/01/17 05:15:35;;;;;;;4.15;2.58;;;0.80;99.90;;;;;;4989868;28;20034;-22
2024/01/17 05:18:00;;;;;;;6.10;2.70;;;0.80;99.90;;;;;;4977855;28;20034;-22
2024/01/17 05:20:26;;;;;;;5.15;2.60;;;0.80;99.90;;;;;;4992215;28;20037;-21
2024/01/17 05:22:52;;;;;;;4.23;2.70;;;0.80;99.90;;;;;;4995618;28;20042;-22
2024/01/17 05:25:17;;;;;;;5.30;2.80;;;0.90;99.90;;;;;;4991377;28;20049;-20
2024/01/17 05:27:50;;;;;;;4.20;2.37;;;0.90;99.90;;;;;;4992669;28;20042;-20
2024/01/17 05:30:16;;;;;;;4.60;2.67;;;0.90;99.90;;;;;;4975992;28;20275;-22
2024/01/17 05:32:42;;;;;;;4.55;2.50;;;0.90;99.90;;;;;;4991350;28;20352;-21
2024/01/17 05:35:08;;;;;;;5.13;2.73;;;0.90;99.90;;;;;;4993092;28;20555;-19
2024/01/17 05:37:34;;;;;;;4.15;2.83;;;1.00;99.90;;;;;;4989595;28;20031;-20
2024/01/17 05:39:59;;;;;;;5.37;2.80;;;-1.20;99.90;;;;;;4991160;28;20046;-20
2024/01/17 05:42:25;;;;;;;5.82;2.88;;;1.00;99.90;;;;;;4973303;28;20058;-19
2024/01/17 05:44:51;;;;;;;4.70;2.57;;;1.00;99.90;;;;;;4990500;28;20465;-19
2024/01/17 05:47:17;;;;;;;5.65;3.15;;;1.00;99.90;;;;;;4976021;28;20068;-19
2024/01/17 05:49:43;;;;;;;4.75;2.70;;;1.00;99.90;;;;;;4989749;28;20101;-20
2024/01/17 05:52:08;;;;;;;4.50;2.43;;;1.00;99.90;;;;;;4957670;28;20527;-19
2024/01/17 05:54:34;;;;;;;5.53;2.63;;;1.10;99.90;;;;;;4986443;28;20026;-19
2024/01/17 05:57:00;;;;;;;4.13;2.23;;;1.10;99.90;;;;;;4975972;28;20040;-20
2024/01/17 05:59:26;;;;;;;5.60;2.88;;;1.10;99.90;;;;;;4990906;28;20046;-19
2024/01/17 06:01:51;;;;;;;4.80;2.57;;;1.10;99.90;;;;;;4991479;28;20089;-19
2024/01/17 06:04:17;;;;;;;4.10;2.58;;;1.10;99.90;;;;;;4990991;28;20050;-19
2024/01/17 06:06:43;;;;;;;6.18;3.03;;;1.10;99.90;;;;;;4992178;28;20033;-19
2024/01/17 06:09:09;;;;;;;5.37;2.73;;;1.40;99.90;;;;;;4994732;28;20073;-19
2024/01/17 06:11:34;;;;;;;5.28;2.58;;;1.10;99.90;;;;;;4986640;28;20050;-20
2024/01/17 06:14:00;;;;;;;5.47;2.80;;;1.20;99.90;;;;;;4988749;28;20037;-20
2024/01/17 06:16:26;;;;;;;5.47;2.80;;;1.20;99.90;;;;;;4970405;28;20030;-19
2024/01/17 06:18:52;;;;;;;4.57;2.80;;;1.20;99.90;;;;;;4976719;28;20097;-19
2024/01/17 06:21:17;;;;;;;5.10;2.55;;;1.20;99.90;;;;;;4978587;28;20085;-19
2024/01/17 06:23:44;;;;;;;4.20;2.43;;;1.20;99.90;;;;;;4991912;28;20050;-20
2024/01/17 06:26:10;;;;;;;4.55;2.63;;;1.20;99.90;;;;;;4978311;28;20286;-19
2024/01/17 06:28:35;;;;;;;5.00;2.67;;;1.20;99.90;;;;;;4989342;28;20093;-19
2024/01/17 06:31:04;;;;;;;5.35;2.78;;;1.20;99.90;;;;;;4986085;28;20266;-19
2024/01/17 06:33:30;;;;;;;5.85;2.88;;;1.20;99.90;;;;;;4988674;28;20312;-20
2024/01/17 06:35:56;;;;;;;4.63;2.70;;;1.20;99.90;;;;;;4968675;28;20058;-20
2024/01/17 06:38:22;;;;;;;4.53;2.50;;;1.20;99.90;;;;;;4992655;28;20028;-19
2024/01/17 06:40:48;;;;;;;4.13;2.70;;;1.20;99.90;;;;;;4989784;28;20334;-19
2024/01/17 06:43:13;;;;;;;5.53;2.60;;;1.20;99.90;;;;;;4971647;28;20038;-20
2024/01/17 06:45:39;;;;;;;4.82;2.35;;;1.20;99.90;;;;;;4983165;28;20114;-20
2024/01/17 06:48:05;;;;;;;3.70;2.13;;;1.20;99.90;;;;;;4988930;28;20396;-19
2024/01/17 06:50:31;;;;;;;5.03;2.60;;;1.20;99.90;;;;;;4958533;28;20275;-20
2024/01/17 06:52:57;;;;;;;5.13;2.33;;;1.20;99.90;;;;;;4992767;28;20242;-18
2024/01/17 06:55:22;;;;;;;6.40;2.70;;;1.20;99.90;;;;;;4990206;28;20035;-20
2024/01/17 06:57:48;;;;;;;4.80;2.73;;;1.20;99.90;;;;;;4985183;28;20098;-19
2024/01/17 07:00:15;;;;;;;5.50;2.80;;;1.20;99.90;;;;;;4989812;28;20542;-20
2024/01/17 07:02:41;;;;;;;4.80;2.70;;;1.20;99.90;;;;;;4994206;28;20042;-20
2024/01/17 07:05:07;;;;;;;3.47;2.13;;;1.20;99.90;;;;;;4989152;28;20233;-20
2024/01/17 07:07:32;;;;;;;5.65;2.63;;;1.20;99.90;;;;;;4990669;28;20022;-21
2024/01/17 07:09:58;;;;;;;6.15;2.40;;;1.20;99.90;;;;;;4991114;28;20047;-21
2024/01/17 07:12:24;;;;;;;5.40;2.90;;;1.20;99.90;;;;;;4990325;28;20038;-20
2024/01/17 07:14:50;;;;;;;3.63;2.30;;;1.20;99.90;;;;;;4976032;28;20369;-20
2024/01/17 07:17:16;;;;;;;4.10;2.40;;;1.20;99.90;;;;;;4987711;28;20077;-20
2024/01/17 07:19:43;;;;;;;5.43;2.22;;;1.20;99.90;;;;;;4986984;28;20029;-21
2024/01/17 07:22:10;;;;;;;5.75;2.50;;;1.20;99.90;;;;;;4989757;28;20070;-20
2024/01/17 07:24:37;;;;;;;4.00;2.33;;;1.20;99.90;;;;;;4991010;28;20350;-20
2024/01/17 07:27:02;;;;;;;5.10;2.60;;;1.20;99.90;;;;;;4957348;28;20023;-21
2024/01/17 07:29:28;;;;;;;4.47;2.30;;;1.20;99.90;;;;;;4988132;28;20037;-20
2024/01/17 07:31:54;;;;;;;5.53;2.78;;;1.20;99.90;;;;;;4987026;28;20358;-20
2024/01/17 07:34:20;;;;;;;5.60;3.20;;;1.20;99.90;;;;;;4989624;28;20053;-19
2024/01/17 07:36:46;;;;;;;5.23;2.80;;;1.20;99.90;;;;;;4977934;28;20045;-20
2024/01/17 07:39:14;;;;;;;6.10;3.15;;;1.20;99.90;;;;;;4958794;28;20035;-20
2024/01/17 07:41:40;;;;;;;4.65;2.72;;;1.20;99.90;;;;;;4988655;28;20121;-19
2024/01/17 07:44:06;;;;;;;4.95;2.72;;;1.20;99.90;;;;;;4990271;28;20491;-21
2024/01/17 07:46:32;;;;;;;4.47;2.58;;;1.20;99.90;;;;;;4992135;28;20464;-20
2024/01/17 07:48:58;;;;;;;4.97;2.53;;;1.20;99.90;;;;;;4984505;28;20042;-20
2024/01/17 07:51:24;;;;;;;5.07;2.40;;;1.20;99.90;;;;;;4987489;28;20321;-20
2024/01/17 07:53:49;;;;;;;5.33;2.50;;;1.20;99.90;;;;;;4986485;28;20065;-22
2024/01/17 07:56:15;;;;;;;5.50;2.67;;;1.20;99.90;;;;;;4985100;28;20281;-20
2024/01/17 07:58:41;;;;;;;5.20;2.73;;;1.30;99.90;;;;;;4990827;28;20089;-21
2024/01/17 08:01:07;;;;;;;4.73;2.17;;;1.30;99.90;;;;;;4990596;28;20737;-19
2024/01/17 08:03:32;;;;;;;5.13;2.70;;;1.30;99.90;;;;;;4962071;28;20030;-20
2024/01/17 08:05:58;;;;;;;5.60;2.90;;;1.30;99.90;;;;;;4992660;28;20049;-19
2024/01/17 08:08:24;;;;;;;5.93;3.20;;;1.30;99.90;;;;;;4996288;28;20048;-21
2024/01/17 08:10:50;;;;;;;6.17;3.33;;;1.30;99.90;;;;;;4980007;28;20046;-20
2024/01/17 08:13:17;;;;;;;6.82;3.45;;;1.40;99.90;;;;;;4991211;28;20239;-20
2024/01/17 08:15:42;;;;;;;5.70;3.10;;;1.40;99.90;;;;;;4990643;28;20300;-20
2024/01/17 08:18:08;;;;;;;6.10;2.93;;;1.40;99.90;;;;;;4977703;28;20046;-20
2024/01/17 08:20:34;;;;;;;6.22;3.30;;;1.40;99.90;;;;;;4992719;28;20323;-20
2024/01/17 08:23:00;;;;;;;6.75;2.92;;;1.40;99.90;;;;;;4991910;28;20259;-20
2024/01/17 08:25:26;;;;;;;8.17;3.77;;;1.40;99.90;;;;;;4995751;28;20132;-21
2024/01/17 08:27:54;;;;;;;5.72;3.00;;;1.50;99.90;;;;;;4990981;28;20057;-19
2024/01/17 08:30:20;;;;;;;7.25;3.15;;;1.50;99.90;;;;;;4994240;28;20396;-21
2024/01/17 08:32:46;;;;;;;5.17;2.63;;;1.60;99.90;;;;;;4994597;28;20046;-19
2024/01/17 08:35:14;;;;;;;6.30;2.78;;;1.60;99.90;;;;;;4995101;28;20109;-20
2024/01/17 08:37:40;;;;;;;5.30;2.55;;;1.70;99.90;;;;;;4992817;28;20271;-20
2024/01/17 08:40:07;;;;;;;5.90;3.25;;;1.60;99.90;;;;;;4984452;28;20044;-19
2024/01/17 08:42:32;;;;;;;5.37;2.73;;;1.60;99.90;;;;;;4990139;28;20035;-20
2024/01/17 08:44:58;;;;;;;5.13;2.63;;;1.60;99.90;;;;;;4994153;28;20073;-21
2024/01/17 08:47:24;;;;;;;7.00;3.40;;;1.60;99.90;;;;;;4975343;28;20260;-19
2024/01/17 08:49:51;;;;;;;6.13;2.92;;;1.70;99.90;;;;;;4996056;28;20173;-20
2024/01/17 08:52:16;;;;;;;4.75;2.38;;;1.70;99.90;;;;;;4996352;28;20042;-20
2024/01/17 08:54:42;;;;;;;5.50;3.10;;;1.70;99.90;;;;;;4992438;28;20376;-19
2024/01/17 08:57:08;;;;;;;6.75;3.33;;;1.90;99.90;;;;;;4993818;28;20298;-21
2024/01/17 08:59:35;;;;;;;5.23;2.57;;;1.70;99.90;;;;;;4990511;28;20250;-20
2024/01/17 09:02:01;;;;;;;6.57;2.97;;;1.80;99.90;;;;;;4992105;28;20038;-19
2024/01/17 09:04:28;;;;;;;5.80;3.00;;;1.80;99.90;;;;;;4975899;28;20042;-20
2024/01/17 09:06:54;;;;;;;5.97;2.92;;;1.80;99.90;;;;;;4975466;28;20038;-20
2024/01/17 09:09:20;;;;;;;6.47;3.40;;;1.80;99.90;;;;;;4990671;28;20050;-19
2024/01/17 09:11:46;;;;;;;6.43;3.72;;;2.10;99.90;;;;;;4977769;28;20050;-20
2024/01/17 09:14:12;;;;;;;6.30;3.60;;;1.90;99.90;;;;;;4992078;28;20116;-20
2024/01/17 09:16:37;;;;;;;6.75;2.97;;;1.90;99.90;;;;;;4992444;28;20370;-21
2024/01/17 09:19:03;;;;;;;6.37;3.03;;;1.90;99.90;;;;;;4996951;28;20259;-19
2024/01/17 09:21:31;;;;;;;6.70;2.92;;;2.00;99.90;;;;;;4976230;28;20377;-20
2024/01/17 09:23:57;;;;;;;7.00;3.00;;;2.00;99.90;;;;;;4978658;28;20030;-21
2024/01/17 09:26:23;;;;;;;6.23;3.33;;;2.00;99.90;;;;;;4993089;28;20061;-18
2024/01/17 09:28:48;;;;;;;6.78;3.35;;;2.00;99.90;;;;;;4991421;28;20233;-18
2024/01/17 09:31:14;;;;;;;4.93;2.80;;;2.00;99.90;;;;;;4995844;28;20468;-21
2024/01/17 09:33:40;;;;;;;6.95;3.20;;;2.10;99.90;;;;;;4989817;28;20045;-19
2024/01/17 09:36:06;;;;;;;6.73;3.23;;;2.10;99.90;;;;;;4974993;28;20038;-19
2024/01/17 09:38:32;;;;;;;5.82;3.03;;;2.10;99.90;;;;;;4989792;28;20076;-18
2024/01/17 09:40:57;;;;;;;6.10;3.20;;;2.10;99.90;;;;;;4989291;28;20045;-18
2024/01/17 09:43:23;;;;;;;6.88;3.00;;;2.10;99.90;;;;;;4994242;28;20081;-20
2024/01/17 09:45:49;;;;;;;6.65;3.00;;;2.10;99.90;;;;;;4988058;28;20049;-19
2024/01/17 09:48:16;;;;;;;7.37;3.20;;;2.20;99.90;;;;;;4991050;28;20035;-18
2024/01/17 09:50:44;;;;;;;7.75;3.67;;;2.20;99.90;;;;;;4990548;28;20066;-18
2024/01/17 09:53:12;;;;;;;8.43;3.67;;;2.10;99.90;;;;;;4990344;28;20321;-21
2024/01/17 09:55:38;;;;;;;7.35;3.58;;;2.20;99.90;;;;;;4990074;28;20037;-18
2024/01/17 09:58:05;;;;;;;9.15;3.88;;;2.20;99.90;;;;;;4989813;28;20038;-19
2024/01/17 10:00:34;;;;;;;10.20;4.70;;;1.10;99.90;;;;;;4996133;28;20033;-19
2024/01/17 10:03:02;;;;;;;8.15;4.35;;;2.10;99.90;;;;;;4957055;28;20115;-18
2024/01/17 10:05:30;;;;;;;7.22;3.70;;;2.20;99.90;;;;;;4987978;28;20119;-18
2024/01/17 10:07:59;;;;;;;6.93;3.50;;;2.20;99.90;;;;;;4993756;28;20033;-18
2024/01/17 10:10:25;;;;;;;6.82;3.30;;;2.30;99.90;;;;;;4989399;28;20057;-20
2024/01/17 10:12:54;;;;;;;6.37;3.00;;;2.30;99.90;;;;;;4990601;28;20041;-18
2024/01/17 10:15:23;;;;;;;6.53;2.97;;;2.40;99.90;;;;;;4991708;28;20073;-20
2024/01/17 10:17:48;;;;;;;7.53;3.33;;;2.30;99.90;;;;;;4980773;28;20099;-18
2024/01/17 10:20:14;;;;;;;6.70;3.10;;;2.30;99.90;;;;;;4990272;28;20330;-18
2024/01/17 10:22:41;;;;;;;6.57;3.20;;;2.30;99.90;;;;;;4989742;28;20275;-17
2024/01/17 10:25:08;;;;;;;8.57;3.72;;;1.70;99.90;;;;;;4990236;28;20049;-20
2024/01/17 10:27:34;;;;;;;7.95;4.03;;;2.30;99.90;;;;;;4991913;28;20457;-21
2024/01/17 10:30:00;;;;;;;7.23;3.97;;;2.40;99.90;;;;;;4990750;28;20135;-19
2024/01/17 10:32:28;;;;;;;6.32;3.20;;;2.30;99.90;;;;;;4989583;28;20050;-19
2024/01/17 10:34:55;;;;;;;5.60;2.83;;;2.30;99.90;;;;;;4991029;28;20042;-18
2024/01/17 10:37:21;;;;;;;5.50;3.07;;;2.40;99.90;;;;;;4990289;28;20030;-18
2024/01/17 10:40:13;;;;;;;8.05;3.15;;;2.40;99.90;;;;;;4985415;28;20315;-18
2024/01/17 10:42:40;;;;;;;6.68;3.45;;;2.40;99.90;;;;;;4986723;28;20300;-19
2024/01/17 10:45:08;;;;;;;8.15;3.15;;;2.40;99.90;;;;;;4979723;28;20520;-20
2024/01/17 10:47:34;;;;;;;7.38;3.50;;;2.40;99.90;;;;;;4987758;28;20232;-19
2024/01/17 10:50:00;;;;;;;6.93;3.67;;;2.40;99.90;;;;;;4987549;28;20347;-18
2024/01/17 10:52:33;;;;;;;6.35;3.42;;;2.40;99.90;;;;;;4990627;28;20034;-18
2024/01/17 10:55:08;;;;;;;6.10;3.13;;;2.40;99.90;;;;;;4990894;28;20034;-18
2024/01/17 10:57:36;;;;;;;5.53;2.77;;;2.40;99.90;;;;;;4986058;28;20216;-18
2024/01/17 11:00:11;;;;;;;6.90;3.50;;;2.40;99.90;;;;;;4987668;28;20353;-18
2024/01/17 11:02:39;;;;;;;6.32;3.28;;;2.40;99.90;;;;;;4990069;28;20040;-18
2024/01/17 11:05:10;;;;;;;8.80;3.72;;;2.30;99.90;;;;;;4979893;28;20139;-18
2024/01/17 11:07:36;;;;;;;6.07;3.63;;;2.30;99.90;;;;;;4993666;28;20245;-18
2024/01/17 11:10:04;;;;;;;7.63;3.57;;;2.40;99.90;;;;;;4991264;28;20088;-18
2024/01/17 11:12:35;;;;;;;7.60;3.38;;;2.40;99.90;;;;;;4990003;28;20118;-18
2024/01/17 11:15:06;;;;;;;7.38;3.95;;;2.30;99.90;;;;;;4991565;28;20030;-17
2024/01/17 11:17:36;;;;;;;7.47;3.55;;;2.30;99.90;;;;;;4979541;28;20057;-18
2024/01/17 11:20:10;;;;;;;6.90;3.58;;;2.30;99.90;;;;;;4992157;28;20046;-18
2024/01/17 11:22:40;;;;;;;5.47;2.87;;;2.30;99.90;;;;;;4980719;28;20259;-18
2024/01/17 11:25:31;;;;;;;7.43;3.45;;;2.40;99.90;;;;;;4992359;28;20057;-18
2024/01/17 11:28:06;;;;;;;6.32;3.42;;;2.40;99.90;;;;;;4994880;28;20061;-18
2024/01/17 11:30:56;;;;;;;7.55;3.55;;;2.40;99.90;;;;;;4995371;28;20099;-17
2024/01/17 11:33:21;;;;;;;4.82;2.42;;;2.40;99.90;;;;;;4993936;28;20081;-18
2024/01/17 11:35:51;;;;;;;7.10;3.27;;;2.50;99.90;;;;;;4991332;28;20046;-17
2024/01/17 11:38:25;;;;;;;7.65;4.30;;;2.40;99.90;;;;;;4991388;28;20050;-18
2024/01/17 11:41:05;;;;;;;6.97;3.55;;;2.40;99.90;;;;;;4989898;28;20042;-18
2024/01/17 11:43:33;;;;;;;7.93;3.58;;;2.40;99.90;;;;;;4969049;28;20106;-18
2024/01/17 11:46:00;;;;;;;10.25;3.97;;;2.40;99.90;;;;;;4993711;28;20039;-18
2024/01/17 11:48:27;;;;;;;8.53;4.27;;;2.40;99.90;;;;;;4987493;28;20069;-19
2024/01/17 11:50:54;;;;;;;8.10;3.53;;;2.50;99.90;;;;;;4970970;28;20027;-18
2024/01/17 11:53:24;;;;;;;5.93;2.60;;;2.50;99.90;;;;;;4991056;28;20050;-19
2024/01/17 11:55:51;;;;;;;6.97;3.22;;;2.50;99.90;;;;;;4977979;28;20033;-18
2024/01/17 11:58:17;;;;;;;8.25;3.45;;;2.50;99.90;;;;;;4992280;28;20516;-17
2024/01/17 12:00:43;;;;;;;8.33;4.07;;;2.50;99.90;;;;;;4990962;28;20066;-17
2024/01/17 12:03:09;;;;;;;7.55;3.53;;;2.50;99.90;;;;;;4974623;28;20046;-18
2024/01/17 12:05:36;;;;;;;8.38;4.10;;;2.60;99.90;;;;;;4987265;28;20109;-18
2024/01/17 12:08:05;;;;;;;9.17;4.70;;;2.60;99.90;;;;;;4985242;28;20056;-18
2024/01/17 12:10:31;;;;;;;9.20;4.63;;;2.60;99.90;;;;;;4970344;28;20038;-18
2024/01/17 12:13:00;;;;;;;6.55;3.25;;;2.60;99.90;;;;;;4972657;28;20330;-19
2024/01/17 12:15:25;;;;;;;7.97;4.30;;;2.60;99.90;;;;;;4988370;28;20275;-18
2024/01/17 12:17:52;;;;;;;9.67;4.13;;;2.60;99.90;;;;;;4988341;28;20037;-18
2024/01/17 12:20:18;;;;;;;9.82;4.57;;;2.60;99.90;;;;;;4991268;28;20053;-19
2024/01/17 12:22:51;;;;;;;8.25;4.05;;;2.60;99.90;;;;;;4989890;28;20196;-19
2024/01/17 12:25:17;;;;;;;8.63;4.32;;;2.70;99.90;;;;;;4984956;28;20328;-19
2024/01/17 12:27:43;;;;;;;8.00;3.87;;;2.70;99.90;;;;;;4990708;28;20043;-18
2024/01/17 12:30:09;;;;;;;7.18;3.38;;;2.70;99.90;;;;;;4987154;28;20039;-19
2024/01/17 12:32:35;;;;;;;5.57;3.42;;;2.70;99.90;;;;;;4990202;28;20101;-18
2024/01/17 12:35:00;;;;;;;7.37;3.40;;;2.90;99.90;;;;;;4987958;28;20030;-18
2024/01/17 12:37:28;;;;;;;7.70;3.70;;;2.80;99.90;;;;;;4962715;28;20046;-18
2024/01/17 12:39:54;;;;;;;6.80;3.45;;;2.80;99.90;;;;;;4971178;28;20057;-18
2024/01/17 12:42:20;;;;;;;7.13;3.50;;;2.80;99.90;;;;;;4991447;28;20053;-19
2024/01/17 12:44:46;;;;;;;8.00;3.72;;;2.80;99.90;;;;;;4994721;28;20345;-19
2024/01/17 12:47:13;;;;;;;7.88;4.22;;;2.90;99.90;;;;;;4992653;28;20052;-19
2024/01/17 12:49:39;;;;;;;7.85;3.92;;;2.90;99.90;;;;;;4999112;28;20030;-18
2024/01/17 12:52:05;;;;;;;6.77;3.70;;;2.90;99.90;;;;;;4996090;28;20036;-18
2024/01/17 12:54:32;;;;;;;9.90;4.10;;;2.90;99.90;;;;;;4980851;28;20047;-18